sensor_id;sensor_type;location;lat;lon;timestamp;P1;durP1;ratioP1;P2;durP2;ratioP2
1140;SDS011;559;48.628;8.924;2023-11-19T00:00:41;98.05;;;92.05;;
1140;SDS011;559;48.628;8.924;2023-11-19T00:03:09;94.85;;;89.15;;
1140;SDS011;559;48.628;8.924;2023-11-19T00:05:36;94.45;;;88.57;;
1140;SDS011;559;48.628;8.924;2023-11-19T00:08:22;96.78;;;90.97;;
1140;SDS011;559;48.628;8.924;2023-11-19T00:20:29;95.50;;;89.60;;
1140;SDS011;559;48.628;8.924;2023-11-19T00:26:14;90.90;;;85.22;;
1140;SDS011;559;48.628;8.924;2023-11-19T00:29:07;90.70;;;84.90;;
1140;SDS011;559;48.628;8.924;2023-11-19T00:31:45;89.22;;;83.53;;
1140;SDS011;559;48.628;8.924;2023-11-19T00:34:11;89.95;;;84.25;;
1140;SDS011;559;48.628;8.924;2023-11-19T00:37:02;99.95;;;93.85;;
1140;SDS011;559;48.628;8.924;2023-11-19T00:39:43;95.97;;;90.18;;
1140;SDS011;559;48.628;8.924;2023-11-19T00:42:11;98.25;;;92.35;;
1140;SDS011;559;48.628;8.924;2023-11-19T00:44:39;92.95;;;87.15;;
1140;SDS011;559;48.628;8.924;2023-11-19T00:47:06;90.70;;;85.00;;
1140;SDS011;559;48.628;8.924;2023-11-19T00:49:36;100.57;;;94.47;;
1140;SDS011;559;48.628;8.924;2023-11-19T00:55:27;97.70;;;92.00;;
1140;SDS011;559;48.628;8.924;2023-11-19T00:57:59;98.65;;;92.85;;
1140;SDS011;559;48.628;8.924;2023-11-19T01:00:28;95.20;;;89.50;;
1140;SDS011;559;48.628;8.924;2023-11-19T01:02:57;99.13;;;93.22;;
1140;SDS011;559;48.628;8.924;2023-11-19T01:05:25;109.15;;;103.05;;
1140;SDS011;559;48.628;8.924;2023-11-19T01:07:53;110.03;;;104.03;;
1140;SDS011;559;48.628;8.924;2023-11-19T01:10:21;103.82;;;97.80;;
1140;SDS011;559;48.628;8.924;2023-11-19T01:12:47;100.65;;;94.75;;
1140;SDS011;559;48.628;8.924;2023-11-19T01:15:14;110.50;;;104.50;;
1140;SDS011;559;48.628;8.924;2023-11-19T01:17:40;105.93;;;99.78;;
1140;SDS011;559;48.628;8.924;2023-11-19T01:20:08;106.40;;;100.43;;
1140;SDS011;559;48.628;8.924;2023-11-19T01:22:38;115.50;;;109.20;;
1140;SDS011;559;48.628;8.924;2023-11-19T01:25:06;108.93;;;102.80;;
1140;SDS011;559;48.628;8.924;2023-11-19T01:27:33;104.10;;;97.90;;
1140;SDS011;559;48.628;8.924;2023-11-19T01:30:00;97.25;;;91.43;;
1140;SDS011;559;48.628;8.924;2023-11-19T01:32:28;96.78;;;90.85;;
1140;SDS011;559;48.628;8.924;2023-11-19T01:34:55;99.78;;;93.88;;
1140;SDS011;559;48.628;8.924;2023-11-19T01:37:21;95.90;;;90.13;;
1140;SDS011;559;48.628;8.924;2023-11-19T01:39:48;98.82;;;92.82;;
1140;SDS011;559;48.628;8.924;2023-11-19T01:42:15;95.97;;;90.18;;
1140;SDS011;559;48.628;8.924;2023-11-19T01:44:42;92.85;;;87.05;;
1140;SDS011;559;48.628;8.924;2023-11-19T01:47:08;95.60;;;89.70;;
1140;SDS011;559;48.628;8.924;2023-11-19T01:49:35;96.05;;;90.15;;
1140;SDS011;559;48.628;8.924;2023-11-19T01:52:01;100.88;;;94.88;;
1140;SDS011;559;48.628;8.924;2023-11-19T01:54:28;96.22;;;90.43;;
1140;SDS011;559;48.628;8.924;2023-11-19T01:56:55;86.85;;;81.20;;
1140;SDS011;559;48.628;8.924;2023-11-19T01:59:24;90.00;;;84.30;;
1140;SDS011;559;48.628;8.924;2023-11-19T02:01:52;91.72;;;85.93;;
1140;SDS011;559;48.628;8.924;2023-11-19T02:04:19;95.10;;;89.30;;
1140;SDS011;559;48.628;8.924;2023-11-19T02:06:46;93.95;;;88.13;;
1140;SDS011;559;48.628;8.924;2023-11-19T02:09:14;91.95;;;86.15;;
1140;SDS011;559;48.628;8.924;2023-11-19T02:11:44;90.15;;;84.43;;
1140;SDS011;559;48.628;8.924;2023-11-19T02:14:14;89.93;;;84.22;;
1140;SDS011;559;48.628;8.924;2023-11-19T02:16:42;96.13;;;90.22;;
1140;SDS011;559;48.628;8.924;2023-11-19T02:19:08;95.57;;;89.68;;
1140;SDS011;559;48.628;8.924;2023-11-19T02:21:35;89.68;;;83.97;;
1140;SDS011;559;48.628;8.924;2023-11-19T02:24:03;89.47;;;83.78;;
1140;SDS011;559;48.628;8.924;2023-11-19T02:26:33;94.20;;;88.30;;
1140;SDS011;559;48.628;8.924;2023-11-19T02:29:06;95.30;;;89.40;;
1140;SDS011;559;48.628;8.924;2023-11-19T02:31:32;91.05;;;85.25;;
1140;SDS011;559;48.628;8.924;2023-11-19T02:34:00;92.10;;;86.30;;
1140;SDS011;559;48.628;8.924;2023-11-19T02:36:27;92.15;;;86.35;;
1140;SDS011;559;48.628;8.924;2023-11-19T02:38:54;83.45;;;77.75;;
1140;SDS011;559;48.628;8.924;2023-11-19T02:41:20;87.63;;;81.93;;
1140;SDS011;559;48.628;8.924;2023-11-19T02:43:47;80.18;;;74.68;;
1140;SDS011;559;48.628;8.924;2023-11-19T02:46:15;80.65;;;75.15;;
1140;SDS011;559;48.628;8.924;2023-11-19T02:48:42;80.22;;;74.82;;
1140;SDS011;559;48.628;8.924;2023-11-19T02:51:09;81.60;;;76.07;;
1140;SDS011;559;48.628;8.924;2023-11-19T02:53:36;81.65;;;76.05;;
1140;SDS011;559;48.628;8.924;2023-11-19T02:56:03;82.95;;;77.45;;
1140;SDS011;559;48.628;8.924;2023-11-19T02:58:42;84.70;;;79.07;;
1140;SDS011;559;48.628;8.924;2023-11-19T03:01:09;85.28;;;79.68;;
1140;SDS011;559;48.628;8.924;2023-11-19T03:03:45;84.85;;;79.25;;
1140;SDS011;559;48.628;8.924;2023-11-19T03:06:14;83.20;;;77.60;;
1140;SDS011;559;48.628;8.924;2023-11-19T03:08:41;80.60;;;75.10;;
1140;SDS011;559;48.628;8.924;2023-11-19T03:11:07;86.70;;;81.07;;
1140;SDS011;559;48.628;8.924;2023-11-19T03:13:34;80.18;;;74.68;;
1140;SDS011;559;48.628;8.924;2023-11-19T03:16:01;87.07;;;81.47;;
1140;SDS011;559;48.628;8.924;2023-11-19T03:18:27;85.10;;;79.50;;
1140;SDS011;559;48.628;8.924;2023-11-19T03:20:55;87.20;;;81.50;;
1140;SDS011;559;48.628;8.924;2023-11-19T03:23:23;85.25;;;79.65;;
1140;SDS011;559;48.628;8.924;2023-11-19T03:25:52;81.78;;;76.28;;
1140;SDS011;559;48.628;8.924;2023-11-19T03:28:19;82.85;;;77.03;;
1140;SDS011;559;48.628;8.924;2023-11-19T03:30:45;79.32;;;73.63;;
1140;SDS011;559;48.628;8.924;2023-11-19T03:33:12;81.15;;;75.65;;
1140;SDS011;559;48.628;8.924;2023-11-19T03:35:38;79.30;;;73.80;;
1140;SDS011;559;48.628;8.924;2023-11-19T03:38:07;79.88;;;74.28;;
1140;SDS011;559;48.628;8.924;2023-11-19T03:40:35;80.50;;;74.90;;
1140;SDS011;559;48.628;8.924;2023-11-19T03:43:03;81.40;;;75.90;;
1140;SDS011;559;48.628;8.924;2023-11-19T03:45:30;81.35;;;75.68;;
1140;SDS011;559;48.628;8.924;2023-11-19T03:47:56;83.82;;;78.22;;
1140;SDS011;559;48.628;8.924;2023-11-19T03:50:22;82.57;;;76.97;;
1140;SDS011;559;48.628;8.924;2023-11-19T03:52:49;83.30;;;77.70;;
1140;SDS011;559;48.628;8.924;2023-11-19T03:55:17;83.15;;;77.55;;
1140;SDS011;559;48.628;8.924;2023-11-19T03:57:43;87.35;;;81.65;;
1140;SDS011;559;48.628;8.924;2023-11-19T04:00:12;90.75;;;84.95;;
1140;SDS011;559;48.628;8.924;2023-11-19T04:02:39;88.90;;;83.10;;
1140;SDS011;559;48.628;8.924;2023-11-19T04:05:06;85.07;;;79.40;;
1140;SDS011;559;48.628;8.924;2023-11-19T04:07:33;83.95;;;78.35;;
1140;SDS011;559;48.628;8.924;2023-11-19T04:09:59;88.75;;;82.95;;
1140;SDS011;559;48.628;8.924;2023-11-19T04:12:28;81.75;;;76.25;;
1140;SDS011;559;48.628;8.924;2023-11-19T04:14:54;83.75;;;78.05;;
1140;SDS011;559;48.628;8.924;2023-11-19T04:17:21;82.00;;;76.40;;
1140;SDS011;559;48.628;8.924;2023-11-19T04:19:48;77.72;;;72.28;;
1140;SDS011;559;48.628;8.924;2023-11-19T04:22:14;76.90;;;71.50;;
1140;SDS011;559;48.628;8.924;2023-11-19T04:24:41;80.13;;;74.63;;
1140;SDS011;559;48.628;8.924;2023-11-19T04:27:09;81.38;;;75.82;;
1140;SDS011;559;48.628;8.924;2023-11-19T04:29:36;80.68;;;75.18;;
1140;SDS011;559;48.628;8.924;2023-11-19T04:32:03;83.32;;;77.80;;
1140;SDS011;559;48.628;8.924;2023-11-19T04:34:30;79.80;;;74.40;;
1140;SDS011;559;48.628;8.924;2023-11-19T04:36:57;80.43;;;74.85;;
1140;SDS011;559;48.628;8.924;2023-11-19T04:39:23;82.53;;;76.85;;
1140;SDS011;559;48.628;8.924;2023-11-19T04:41:50;86.15;;;80.47;;
1140;SDS011;559;48.628;8.924;2023-11-19T04:44:18;81.30;;;75.50;;
1140;SDS011;559;48.628;8.924;2023-11-19T04:46:46;82.72;;;77.13;;
1140;SDS011;559;48.628;8.924;2023-11-19T04:49:13;84.15;;;78.55;;
1140;SDS011;559;48.628;8.924;2023-11-19T04:51:40;87.88;;;82.18;;
1140;SDS011;559;48.628;8.924;2023-11-19T04:54:07;84.65;;;79.05;;
1140;SDS011;559;48.628;8.924;2023-11-19T04:56:34;84.72;;;79.13;;
1140;SDS011;559;48.628;8.924;2023-11-19T04:59:01;86.32;;;80.63;;
1140;SDS011;559;48.628;8.924;2023-11-19T05:01:28;84.28;;;78.75;;
1140;SDS011;559;48.628;8.924;2023-11-19T05:03:56;92.55;;;86.75;;
1140;SDS011;559;48.628;8.924;2023-11-19T05:06:25;102.20;;;96.00;;
1140;SDS011;559;48.628;8.924;2023-11-19T05:08:52;104.40;;;98.20;;
1140;SDS011;559;48.628;8.924;2023-11-19T05:11:19;108.70;;;102.50;;
1140;SDS011;559;48.628;8.924;2023-11-19T05:13:45;106.32;;;100.22;;
1140;SDS011;559;48.628;8.924;2023-11-19T05:16:12;94.15;;;88.35;;
1140;SDS011;559;48.628;8.924;2023-11-19T05:18:39;93.07;;;87.38;;
1140;SDS011;559;48.628;8.924;2023-11-19T05:21:07;86.60;;;81.00;;
1140;SDS011;559;48.628;8.924;2023-11-19T05:23:33;87.05;;;81.45;;
1140;SDS011;559;48.628;8.924;2023-11-19T05:26:00;94.30;;;88.50;;
1140;SDS011;559;48.628;8.924;2023-11-19T05:28:27;88.88;;;83.18;;
1140;SDS011;559;48.628;8.924;2023-11-19T05:30:53;93.70;;;87.90;;
1140;SDS011;559;48.628;8.924;2023-11-19T05:33:20;98.35;;;92.45;;
1140;SDS011;559;48.628;8.924;2023-11-19T05:35:47;92.95;;;87.20;;
1140;SDS011;559;48.628;8.924;2023-11-19T05:38:15;105.00;;;99.00;;
1140;SDS011;559;48.628;8.924;2023-11-19T05:40:41;96.05;;;90.35;;
1140;SDS011;559;48.628;8.924;2023-11-19T05:43:08;90.13;;;84.57;;
1140;SDS011;559;48.628;8.924;2023-11-19T05:45:34;99.05;;;93.25;;
1140;SDS011;559;48.628;8.924;2023-11-19T05:48:01;96.57;;;90.88;;
1140;SDS011;559;48.628;8.924;2023-11-19T05:50:29;100.15;;;94.25;;
1140;SDS011;559;48.628;8.924;2023-11-19T05:52:56;103.18;;;97.18;;
1140;SDS011;559;48.628;8.924;2023-11-19T05:55:24;105.90;;;99.80;;
1140;SDS011;559;48.628;8.924;2023-11-19T05:57:53;117.53;;;111.15;;
1140;SDS011;559;48.628;8.924;2023-11-19T06:00:20;111.15;;;105.05;;
1140;SDS011;559;48.628;8.924;2023-11-19T06:02:47;98.25;;;92.25;;
1140;SDS011;559;48.628;8.924;2023-11-19T06:05:14;94.25;;;88.15;;
1140;SDS011;559;48.628;8.924;2023-11-19T06:07:40;87.75;;;82.05;;
1140;SDS011;559;48.628;8.924;2023-11-19T06:10:07;93.40;;;87.50;;
1140;SDS011;559;48.628;8.924;2023-11-19T06:12:36;85.80;;;80.10;;
1140;SDS011;559;48.628;8.924;2023-11-19T06:15:11;98.63;;;92.43;;
1140;SDS011;559;48.628;8.924;2023-11-19T06:17:38;96.07;;;90.15;;
1140;SDS011;559;48.628;8.924;2023-11-19T06:20:05;100.18;;;94.00;;
1140;SDS011;559;48.628;8.924;2023-11-19T06:22:32;98.40;;;92.40;;
1140;SDS011;559;48.628;8.924;2023-11-19T06:24:59;100.82;;;94.72;;
1140;SDS011;559;48.628;8.924;2023-11-19T06:27:25;97.00;;;91.00;;
1140;SDS011;559;48.628;8.924;2023-11-19T06:29:53;92.80;;;86.90;;
1140;SDS011;559;48.628;8.924;2023-11-19T06:32:20;93.60;;;87.70;;
1140;SDS011;559;48.628;8.924;2023-11-19T06:34:47;93.00;;;87.10;;
1140;SDS011;559;48.628;8.924;2023-11-19T06:37:13;89.30;;;83.50;;
1140;SDS011;559;48.628;8.924;2023-11-19T06:39:40;98.50;;;92.40;;
1140;SDS011;559;48.628;8.924;2023-11-19T06:42:09;95.95;;;89.75;;
1140;SDS011;559;48.628;8.924;2023-11-19T06:44:36;90.05;;;84.10;;
1140;SDS011;559;48.628;8.924;2023-11-19T06:47:04;86.13;;;80.32;;
1140;SDS011;559;48.628;8.924;2023-11-19T06:49:31;85.38;;;79.47;;
1140;SDS011;559;48.628;8.924;2023-11-19T06:51:58;95.88;;;89.68;;
1140;SDS011;559;48.628;8.924;2023-11-19T06:54:24;91.90;;;85.80;;
1140;SDS011;559;48.628;8.924;2023-11-19T06:56:51;91.88;;;85.75;;
1140;SDS011;559;48.628;8.924;2023-11-19T06:59:17;96.50;;;90.40;;
1140;SDS011;559;48.628;8.924;2023-11-19T07:01:44;91.72;;;85.72;;
1140;SDS011;559;48.628;8.924;2023-11-19T07:04:12;88.72;;;82.63;;
1140;SDS011;559;48.628;8.924;2023-11-19T07:06:38;86.28;;;80.38;;
1140;SDS011;559;48.628;8.924;2023-11-19T07:09:06;85.07;;;79.28;;
1140;SDS011;559;48.628;8.924;2023-11-19T07:11:35;87.35;;;81.55;;
1140;SDS011;559;48.628;8.924;2023-11-19T07:14:03;91.43;;;85.43;;
1140;SDS011;559;48.628;8.924;2023-11-19T07:16:32;85.80;;;79.80;;
1140;SDS011;559;48.628;8.924;2023-11-19T07:18:59;86.75;;;80.75;;
1140;SDS011;559;48.628;8.924;2023-11-19T07:21:27;85.80;;;79.85;;
1140;SDS011;559;48.628;8.924;2023-11-19T07:23:54;90.72;;;84.53;;
1140;SDS011;559;48.628;8.924;2023-11-19T07:26:21;88.82;;;82.82;;
1140;SDS011;559;48.628;8.924;2023-11-19T07:28:47;86.90;;;81.00;;
1140;SDS011;559;48.628;8.924;2023-11-19T07:31:17;88.40;;;82.25;;
1140;SDS011;559;48.628;8.924;2023-11-19T07:33:44;94.15;;;88.05;;
1140;SDS011;559;48.628;8.924;2023-11-19T07:36:11;90.95;;;85.05;;
1140;SDS011;559;48.628;8.924;2023-11-19T07:38:39;87.93;;;82.13;;
1140;SDS011;559;48.628;8.924;2023-11-19T07:41:06;87.55;;;81.47;;
1140;SDS011;559;48.628;8.924;2023-11-19T07:43:38;84.03;;;78.20;;
1140;SDS011;559;48.628;8.924;2023-11-19T07:46:29;84.30;;;78.53;;
1140;SDS011;559;48.628;8.924;2023-11-19T07:50:34;94.97;;;88.97;;
1140;SDS011;559;48.628;8.924;2023-11-19T07:52:44;100.97;;;94.88;;
1140;SDS011;559;48.628;8.924;2023-11-19T07:55:15;100.00;;;94.00;;
1140;SDS011;559;48.628;8.924;2023-11-19T07:57:41;95.72;;;89.63;;
1140;SDS011;559;48.628;8.924;2023-11-19T08:03:05;77.20;;;71.70;;
1140;SDS011;559;48.628;8.924;2023-11-19T08:06:16;73.85;;;68.45;;
1140;SDS011;559;48.628;8.924;2023-11-19T08:08:42;76.53;;;71.03;;
1140;SDS011;559;48.628;8.924;2023-11-19T08:11:11;76.43;;;70.82;;
1140;SDS011;559;48.628;8.924;2023-11-19T08:13:55;73.68;;;68.25;;
1140;SDS011;559;48.628;8.924;2023-11-19T08:16:27;75.43;;;69.82;;
1140;SDS011;559;48.628;8.924;2023-11-19T08:18:54;74.93;;;69.43;;
1140;SDS011;559;48.628;8.924;2023-11-19T08:21:23;75.78;;;70.28;;
1140;SDS011;559;48.628;8.924;2023-11-19T08:23:52;76.50;;;70.90;;
1140;SDS011;559;48.628;8.924;2023-11-19T08:26:19;75.25;;;69.85;;
1140;SDS011;559;48.628;8.924;2023-11-19T08:28:46;73.60;;;68.20;;
1140;SDS011;559;48.628;8.924;2023-11-19T08:31:13;82.35;;;76.65;;
1140;SDS011;559;48.628;8.924;2023-11-19T08:33:39;78.40;;;72.80;;
1140;SDS011;559;48.628;8.924;2023-11-19T08:42:12;83.13;;;77.32;;
1140;SDS011;559;48.628;8.924;2023-11-19T08:43:00;73.53;;;68.18;;
1140;SDS011;559;48.628;8.924;2023-11-19T08:45:26;71.35;;;66.15;;
1140;SDS011;559;48.628;8.924;2023-11-19T08:55:08;65.85;;;60.95;;
1140;SDS011;559;48.628;8.924;2023-11-19T08:57:34;68.70;;;63.78;;
1140;SDS011;559;48.628;8.924;2023-11-19T09:00:03;61.13;;;56.42;;
1140;SDS011;559;48.628;8.924;2023-11-19T09:02:32;61.95;;;57.45;;
1140;SDS011;559;48.628;8.924;2023-11-19T09:04:59;59.95;;;55.47;;
1140;SDS011;559;48.628;8.924;2023-11-19T09:07:25;64.13;;;59.63;;
1140;SDS011;559;48.628;8.924;2023-11-19T09:09:52;66.07;;;61.47;;
1140;SDS011;559;48.628;8.924;2023-11-19T09:12:19;60.50;;;56.20;;
1140;SDS011;559;48.628;8.924;2023-11-19T09:14:45;58.17;;;53.58;;
1140;SDS011;559;48.628;8.924;2023-11-19T09:17:13;58.00;;;53.80;;
1140;SDS011;559;48.628;8.924;2023-11-19T09:19:39;56.08;;;52.00;;
1140;SDS011;559;48.628;8.924;2023-11-19T09:22:06;58.53;;;54.42;;
1140;SDS011;559;48.628;8.924;2023-11-19T09:24:32;60.47;;;56.40;;
1140;SDS011;559;48.628;8.924;2023-11-19T09:26:59;59.42;;;55.42;;
1140;SDS011;559;48.628;8.924;2023-11-19T09:29:25;56.58;;;52.78;;
1140;SDS011;559;48.628;8.924;2023-11-19T09:31:52;58.50;;;54.60;;
1140;SDS011;559;48.628;8.924;2023-11-19T09:34:20;54.50;;;50.80;;
1140;SDS011;559;48.628;8.924;2023-11-19T09:36:46;54.72;;;50.72;;
1140;SDS011;559;48.628;8.924;2023-11-19T09:39:13;54.20;;;50.50;;
1140;SDS011;559;48.628;8.924;2023-11-19T09:41:42;54.33;;;50.63;;
1140;SDS011;559;48.628;8.924;2023-11-19T09:44:10;54.35;;;50.55;;
1140;SDS011;559;48.628;8.924;2023-11-19T09:46:37;53.78;;;50.08;;
1140;SDS011;559;48.628;8.924;2023-11-19T09:49:04;54.67;;;50.88;;
1140;SDS011;559;48.628;8.924;2023-11-19T09:51:34;55.85;;;51.95;;
1140;SDS011;559;48.628;8.924;2023-11-19T09:54:00;54.10;;;50.30;;
1140;SDS011;559;48.628;8.924;2023-11-19T09:56:27;52.65;;;48.85;;
1140;SDS011;559;48.628;8.924;2023-11-19T09:58:55;55.38;;;51.65;;
1140;SDS011;559;48.628;8.924;2023-11-19T10:01:22;54.22;;;50.50;;
1140;SDS011;559;48.628;8.924;2023-11-19T10:03:48;51.50;;;47.90;;
1140;SDS011;559;48.628;8.924;2023-11-19T10:06:16;52.40;;;48.80;;
1140;SDS011;559;48.628;8.924;2023-11-19T10:08:45;53.20;;;49.40;;
1140;SDS011;559;48.628;8.924;2023-11-19T10:11:12;54.38;;;50.45;;
1140;SDS011;559;48.628;8.924;2023-11-19T10:13:38;58.70;;;54.80;;
1140;SDS011;559;48.628;8.924;2023-11-19T10:16:07;53.85;;;50.15;;
1140;SDS011;559;48.628;8.924;2023-11-19T10:18:36;59.17;;;54.97;;
1140;SDS011;559;48.628;8.924;2023-11-19T10:21:04;55.90;;;52.20;;
1140;SDS011;559;48.628;8.924;2023-11-19T10:23:41;58.75;;;54.92;;
1140;SDS011;559;48.628;8.924;2023-11-19T10:26:17;56.83;;;53.23;;
1140;SDS011;559;48.628;8.924;2023-11-19T10:28:43;53.90;;;50.30;;
1140;SDS011;559;48.628;8.924;2023-11-19T10:31:12;53.45;;;49.95;;
1140;SDS011;559;48.628;8.924;2023-11-19T10:33:38;53.63;;;49.92;;
1140;SDS011;559;48.628;8.924;2023-11-19T10:36:05;49.17;;;45.78;;
1140;SDS011;559;48.628;8.924;2023-11-19T10:38:33;54.00;;;50.50;;
1140;SDS011;559;48.628;8.924;2023-11-19T10:41:01;53.90;;;50.60;;
1140;SDS011;559;48.628;8.924;2023-11-19T10:43:42;50.63;;;47.33;;
1140;SDS011;559;48.628;8.924;2023-11-19T10:46:11;51.43;;;48.13;;
1140;SDS011;559;48.628;8.924;2023-11-19T10:48:39;50.60;;;47.50;;
1140;SDS011;559;48.628;8.924;2023-11-19T10:51:06;46.83;;;44.13;;
1140;SDS011;559;48.628;8.924;2023-11-19T10:53:33;47.27;;;44.47;;
1140;SDS011;559;48.628;8.924;2023-11-19T10:56:04;45.42;;;42.83;;
1140;SDS011;559;48.628;8.924;2023-11-19T10:58:33;42.15;;;39.95;;
1140;SDS011;559;48.628;8.924;2023-11-19T11:01:03;42.15;;;39.95;;
1140;SDS011;559;48.628;8.924;2023-11-19T11:03:35;42.13;;;39.80;;
1140;SDS011;559;48.628;8.924;2023-11-19T11:06:05;43.10;;;41.00;;
1140;SDS011;559;48.628;8.924;2023-11-19T11:08:32;39.93;;;38.03;;
1140;SDS011;559;48.628;8.924;2023-11-19T11:11:04;39.47;;;37.55;;
1140;SDS011;559;48.628;8.924;2023-11-19T11:13:31;41.50;;;39.30;;
1140;SDS011;559;48.628;8.924;2023-11-19T11:15:59;40.87;;;38.77;;
1140;SDS011;559;48.628;8.924;2023-11-19T11:18:29;40.83;;;38.83;;
1140;SDS011;559;48.628;8.924;2023-11-19T11:20:57;42.10;;;40.10;;
1140;SDS011;559;48.628;8.924;2023-11-19T11:23:43;42.80;;;40.70;;
1140;SDS011;559;48.628;8.924;2023-11-19T11:26:31;41.50;;;39.40;;
1140;SDS011;559;48.628;8.924;2023-11-19T11:29:09;42.10;;;40.10;;
1140;SDS011;559;48.628;8.924;2023-11-19T11:31:41;40.22;;;38.28;;
1140;SDS011;559;48.628;8.924;2023-11-19T11:34:19;42.28;;;40.20;;
1140;SDS011;559;48.628;8.924;2023-11-19T11:36:58;39.97;;;37.97;;
1140;SDS011;559;48.628;8.924;2023-11-19T11:39:31;40.58;;;38.47;;
1140;SDS011;559;48.628;8.924;2023-11-19T11:45:03;40.83;;;38.60;;
1140;SDS011;559;48.628;8.924;2023-11-19T11:51:05;42.20;;;40.00;;
1140;SDS011;559;48.628;8.924;2023-11-19T11:57:44;43.22;;;40.83;;
1140;SDS011;559;48.628;8.924;2023-11-19T12:00:22;42.20;;;40.20;;
1140;SDS011;559;48.628;8.924;2023-11-19T12:18:27;37.88;;;36.28;;
1140;SDS011;559;48.628;8.924;2023-11-19T12:21:34;37.20;;;35.60;;
1140;SDS011;559;48.628;8.924;2023-11-19T12:24:05;37.90;;;36.20;;
1140;SDS011;559;48.628;8.924;2023-11-19T12:37:37;35.73;;;34.33;;
1140;SDS011;559;48.628;8.924;2023-11-19T12:40:38;35.33;;;33.93;;
1140;SDS011;559;48.628;8.924;2023-11-19T12:46:30;35.95;;;34.65;;
1140;SDS011;559;48.628;8.924;2023-11-19T12:49:08;35.95;;;34.55;;
1140;SDS011;559;48.628;8.924;2023-11-19T12:51:48;35.30;;;34.10;;
1140;SDS011;559;48.628;8.924;2023-11-19T12:57:40;34.87;;;33.77;;
1140;SDS011;559;48.628;8.924;2023-11-19T13:00:26;33.23;;;32.13;;
1140;SDS011;559;48.628;8.924;2023-11-19T13:06:31;31.80;;;30.60;;
1140;SDS011;559;48.628;8.924;2023-11-19T13:17:50;33.87;;;32.77;;
1140;SDS011;559;48.628;8.924;2023-11-19T13:20:21;30.90;;;30.00;;
1140;SDS011;559;48.628;8.924;2023-11-19T13:26:30;30.17;;;29.37;;
1140;SDS011;559;48.628;8.924;2023-11-19T13:29:14;31.43;;;30.33;;
1140;SDS011;559;48.628;8.924;2023-11-19T13:32:11;30.67;;;29.77;;
1140;SDS011;559;48.628;8.924;2023-11-19T13:34:57;32.67;;;31.67;;
1140;SDS011;559;48.628;8.924;2023-11-19T13:37:32;31.80;;;30.80;;
1140;SDS011;559;48.628;8.924;2023-11-19T13:40:20;31.90;;;30.90;;
1140;SDS011;559;48.628;8.924;2023-11-19T13:49:34;29.65;;;28.75;;
1140;SDS011;559;48.628;8.924;2023-11-19T13:59:00;29.80;;;28.90;;
1140;SDS011;559;48.628;8.924;2023-11-19T14:11:07;28.70;;;27.70;;
1140;SDS011;559;48.628;8.924;2023-11-19T14:13:34;27.73;;;26.93;;
1140;SDS011;559;48.628;8.924;2023-11-19T14:16:00;28.60;;;27.73;;
1140;SDS011;559;48.628;8.924;2023-11-19T14:18:29;29.27;;;28.30;;
1140;SDS011;559;48.628;8.924;2023-11-19T14:20:55;29.58;;;28.67;;
1140;SDS011;559;48.628;8.924;2023-11-19T14:23:56;31.30;;;30.30;;
1140;SDS011;559;48.628;8.924;2023-11-19T14:26:22;32.40;;;31.30;;
1140;SDS011;559;48.628;8.924;2023-11-19T14:28:48;32.00;;;31.00;;
1140;SDS011;559;48.628;8.924;2023-11-19T14:31:15;33.30;;;32.10;;
1140;SDS011;559;48.628;8.924;2023-11-19T14:40:55;33.63;;;32.35;;
1140;SDS011;559;48.628;8.924;2023-11-19T14:44:40;35.55;;;34.25;;
1140;SDS011;559;48.628;8.924;2023-11-19T14:49:49;34.90;;;33.75;;
1140;SDS011;559;48.628;8.924;2023-11-19T14:54:13;35.45;;;34.25;;
1140;SDS011;559;48.628;8.924;2023-11-19T15:02:28;31.50;;;30.60;;
1140;SDS011;559;48.628;8.924;2023-11-19T15:32:57;36.65;;;35.45;;
1140;SDS011;559;48.628;8.924;2023-11-19T15:35:41;38.30;;;37.00;;
1140;SDS011;559;48.628;8.924;2023-11-19T16:25:17;43.13;;;41.33;;
1140;SDS011;559;48.628;8.924;2023-11-19T16:38:49;46.17;;;44.08;;
1140;SDS011;559;48.628;8.924;2023-11-19T16:48:17;46.95;;;44.85;;
1140;SDS011;559;48.628;8.924;2023-11-19T16:57:32;46.30;;;44.13;;
1140;SDS011;559;48.628;8.924;2023-11-19T17:03:53;47.55;;;45.50;;
1140;SDS011;559;48.628;8.924;2023-11-19T17:10:15;49.08;;;46.75;;
1140;SDS011;559;48.628;8.924;2023-11-19T17:12:42;48.70;;;46.70;;
1140;SDS011;559;48.628;8.924;2023-11-19T17:15:14;47.30;;;45.30;;
1140;SDS011;559;48.628;8.924;2023-11-19T17:18:12;46.88;;;44.97;;
1140;SDS011;559;48.628;8.924;2023-11-19T17:20:42;46.03;;;44.13;;
1140;SDS011;559;48.628;8.924;2023-11-19T17:23:09;47.33;;;45.13;;
1140;SDS011;559;48.628;8.924;2023-11-19T17:25:37;45.45;;;43.45;;
1140;SDS011;559;48.628;8.924;2023-11-19T17:28:06;47.53;;;45.40;;
1140;SDS011;559;48.628;8.924;2023-11-19T17:30:36;57.17;;;53.88;;
1140;SDS011;559;48.628;8.924;2023-11-19T17:33:07;57.85;;;53.92;;
1140;SDS011;559;48.628;8.924;2023-11-19T17:35:35;50.92;;;48.35;;
1140;SDS011;559;48.628;8.924;2023-11-19T17:38:03;49.33;;;47.05;;
1140;SDS011;559;48.628;8.924;2023-11-19T17:40:31;49.92;;;47.53;;
1140;SDS011;559;48.628;8.924;2023-11-19T17:43:01;51.92;;;49.50;;
1140;SDS011;559;48.628;8.924;2023-11-19T17:45:33;51.38;;;48.97;;
1140;SDS011;559;48.628;8.924;2023-11-19T17:48:03;49.10;;;46.90;;
1140;SDS011;559;48.628;8.924;2023-11-19T17:50:30;50.22;;;47.83;;
1140;SDS011;559;48.628;8.924;2023-11-19T18:03:42;53.97;;;51.33;;
1140;SDS011;559;48.628;8.924;2023-11-19T18:06:18;55.95;;;53.20;;
1140;SDS011;559;48.628;8.924;2023-11-19T18:15:36;53.85;;;51.22;;
1140;SDS011;559;48.628;8.924;2023-11-19T18:18:03;54.90;;;51.90;;
1140;SDS011;559;48.628;8.924;2023-11-19T18:20:44;54.42;;;51.22;;
1140;SDS011;559;48.628;8.924;2023-11-19T18:27:06;53.60;;;50.80;;
1140;SDS011;559;48.628;8.924;2023-11-19T18:29:33;56.67;;;53.80;;
1140;SDS011;559;48.628;8.924;2023-11-19T18:32:05;55.47;;;52.58;;
1140;SDS011;559;48.628;8.924;2023-11-19T18:34:34;58.17;;;54.85;;
1140;SDS011;559;48.628;8.924;2023-11-19T18:37:01;56.85;;;53.72;;
1140;SDS011;559;48.628;8.924;2023-11-19T18:39:28;55.00;;;52.00;;
1140;SDS011;559;48.628;8.924;2023-11-19T18:41:55;53.85;;;50.95;;
1140;SDS011;559;48.628;8.924;2023-11-19T18:44:24;54.28;;;51.28;;
1140;SDS011;559;48.628;8.924;2023-11-19T18:49:42;53.55;;;50.75;;
1140;SDS011;559;48.628;8.924;2023-11-19T18:52:45;53.28;;;50.30;;
1140;SDS011;559;48.628;8.924;2023-11-19T18:58:39;55.65;;;52.55;;
1140;SDS011;559;48.628;8.924;2023-11-19T18:59:18;54.67;;;51.70;;
1140;SDS011;559;48.628;8.924;2023-11-19T19:05:20;53.95;;;51.15;;
1140;SDS011;559;48.628;8.924;2023-11-19T19:11:40;55.38;;;52.08;;
1140;SDS011;559;48.628;8.924;2023-11-19T19:14:43;60.33;;;56.72;;
1140;SDS011;559;48.628;8.924;2023-11-19T19:20:19;55.55;;;52.65;;
1140;SDS011;559;48.628;8.924;2023-11-19T19:21:09;55.35;;;52.38;;
1140;SDS011;559;48.628;8.924;2023-11-19T19:23:36;53.90;;;51.10;;
1140;SDS011;559;48.628;8.924;2023-11-19T19:26:06;51.90;;;49.17;;
1140;SDS011;559;48.628;8.924;2023-11-19T19:28:32;51.13;;;48.53;;
1140;SDS011;559;48.628;8.924;2023-11-19T19:31:02;51.00;;;48.40;;
1140;SDS011;559;48.628;8.924;2023-11-19T19:33:29;50.67;;;48.17;;
1140;SDS011;559;48.628;8.924;2023-11-19T19:35:57;51.08;;;48.47;;
1140;SDS011;559;48.628;8.924;2023-11-19T19:38:27;52.28;;;49.58;;
1140;SDS011;559;48.628;8.924;2023-11-19T19:40:54;51.05;;;48.35;;
1140;SDS011;559;48.628;8.924;2023-11-19T19:43:20;51.25;;;48.63;;
1140;SDS011;559;48.628;8.924;2023-11-19T19:45:47;50.28;;;47.67;;
1140;SDS011;559;48.628;8.924;2023-11-19T19:48:16;49.65;;;47.15;;
1140;SDS011;559;48.628;8.924;2023-11-19T19:50:43;51.22;;;48.42;;